KTUL/TUL METAR and TAF weather

Enter ICAO airport designator
Station Type Date Time Source
KTUL METAR 2019/04/19 07:53 UTC NOAA

KTUL 190753Z 30004KT 10SM SCT100 09/05 A2991 RMK AO2 SLP126 T00940050


Station Type Date Time Source
KTUL Decoded METAR 2019/04/19 07:53 UTC NOAA

TULSA INTERNATIONAL AIRPORT, OK, United States (KTUL) 36-12N 95-53W 207M
Apr 19, 2019 - 03:53 AM EDT / 2019.04.19 0753 UTC
Wind: from the WNW (300 degrees) at 5 MPH (4 KT):0
Visibility: 10 mile(s):0
Sky conditions: partly cloudy
Temperature: 48.9 F (9.4 C)
Dew Point: 41.0 F (5.0 C)
Relative Humidity: 73%
Pressure (altimeter): 29.91 in. Hg (1012 hPa)
ob: KTUL 190753Z 30004KT 10SM SCT100 09/05 A2991 RMK AO2 SLP126 T00940050
cycle: 8

Station Type Date Time Source
KTUL TAF 2019/04/19 06:22 UTC NOAA

TAF KTUL 190520Z 1906/2006 33011KT P6SM BKN100
FM191600 34012G20KT P6SM SCT250
FM200000 34009KT P6SM SKC

Example: see airport list